Tiempo atmosférico en la estación meteorológica de Almansa, Albacete (715 m.)



Fecha
DESCASC
Temp. máxima en grados centígrados (hora)
DESCASC
Temp. mínima en grados centígrados (hora)
DESCASC
Temp. media en grados centígrados
DESCASC
Racha de viento máxima en m/sg (hora)
DESCASC
Velocidad máxima media en intervalos de 10 minutos(hora)
DESCASC
Precipitaciones diarias en mm
DESCASC
Precipitaciones de 00:00 a 06:00 en mm
DESCASC
Precipitaciones de 06:00 a 12:00 en mm
DESCASC
Precipitaciones de 12:00 a 18:00 en mm
DESCASC
Precipitaciones de 18:00 a 24:00 en mm
DESCASC
22-01-2020 9.8 (16:20) -0.4 (23:20) 4.7 5.56 (13:30) 2.78 (15:30) 2.8 2.8 0 0 0
21-01-2020 6.2 (14:40) 1.4 (01:20) 3.8 9.72 (07:00) 3.06 (07:00) 35.4 14 16.2 3.2 2
20-01-2020 2.8 (19:30) -0.1 (04:00) 1.3 9.72 (18:50) 3.89 (00:30) 35.2 1.8 1.2 16.4 15.8
19-01-2020 9.9 (00:00) 0.1 (00:00) 5 15.83 (02:20) 5.28 (02:20) 15.4 0.6 2.6 5.8 6.4
18-01-2020 12.8 (15:50) 4.2 (00:00) 8.5 8.89 (23:40) 3.89 (23:40) 0 0 0 0 0
17-01-2020 13.6 (14:50) 2 (00:00) 7.8 11.67 (13:10) 6.11 (12:50) 0 0 0 0 0
16-01-2020 16.3 (14:50) -0.4 (00:00) 7.9 5.56 (14:50) 2.22 (15:10) 0 0 0 0 0
15-01-2020 14.6 (14:50) 2.2 (00:00) 8.4 9.17 (14:40) 3.89 (15:10) 0 0 0 0 0
14-01-2020 13.1 (14:40) 0.3 (00:00) 6.7 7.5 (16:10) 3.61 (16:10) 0 0 0 0 0
13-01-2020 13.2 (15:10) -5.4 (-00:0) 3.9 7.22 (14:50) 3.61 (13:50) 0 0 0 0 0
12-01-2020 12.8 (14:50) -2.4 (-00:0) 5.2 5 (10:50) 2.5 (10:50) 0 0 0 0 0
11-01-2020 12.3 (15:40) -1.9 (-00:0) 5.2 3.61 (13:40) 1.67 (13:00) 0 0 0 0 0
10-01-2020 11.6 (15:40) 3.9 (00:00) 7.8 7.78 (14:30) 3.33 (14:30) 0 0 0 0 0
09-01-2020 12.7 (16:00) -2.5 (-00:0) 5.1 3.89 (15:00) 1.67 (14:50) 0 0 0 0 0
08-01-2020 12.3 (13:40) -1.3 (-00:0) 5.5 5.83 (13:20) 2.5 (15:00) 0 0 0 0 0
07-01-2020 16.6 (16:00) -2.9 (-00:0) 6.9 2.78 (20:30) 1.39 (13:30) 0 0 0 0 0
06-01-2020 16.8 (16:00) -3.5 (-00:0) 6.6 3.33 (15:30) 1.39 (05:20) 0 0 0 0 0
05-01-2020 15 (15:40) -2.7 (-00:0) 6.1 2.5 (15:30) 1.11 (06:10) 0 0 0 0 0
04-01-2020 12.1 (15:50) -1.1 (-00:0) 5.5 3.61 (15:30) 1.67 (15:30) 0.2 0 0.2 0 0
03-01-2020 15.9 (15:30) -0.7 (-00:0) 7.6 5.83 (16:00) 2.5 (15:20) 0 0 0 0 0
02-01-2020 13.6 (14:50) -2.9 (-00:0) 5.4 2.22 (12:50) 1.11 (15:30) 0 0 0 0 0
01-01-2020 15.8 (16:00) -3 (-00:0) 6.4 1.67 (13:00) 0.83 (16:10) 0 0 0 0 0
31-12-2019 12 (15:50) -1.6 (-00:0) 5.2 3.89 (16:40) 1.67 (16:40) 0 0 0 0 0
30-12-2019 -- (--) -- (--) -- -- (--) -- (--) -- 0 0.4 -- 0
29-12-2019 13.4 (15:50) -1.9 (-00:0) 5.7 4.17 (12:40) 1.67 (13:00) 0 0 0 0 0
28-12-2019 15.6 (15:00) -2.3 (-00:0) 6.7 3.33 (13:40) 1.39 (13:20) 0 0 0 0 0
27-12-2019 18 (15:30) 0 (00:00) 9 2.78 (13:50) 1.67 (13:50) 0 0 0 0 0
26-12-2019 20.4 (15:20) 4.2 (00:00) 12.3 5.83 (11:30) 2.22 (01:00) 0 0 0 0 0
25-12-2019 20.8 (15:40) -0.1 (00:00) 10.3 5.28 (19:50) 2.22 (20:30) 0 0 0 0 0

Gráficas

Temp. máximas Temp. mínimas Temp. medias Precipitaciones Rachas de viento máximas Velocidades máximas media en intervalos de 10 minutos

Datos horarios

Fecha y hora oficial Temperatura (ºC) Velocidad del viento (km/h) Dirección del viento Racha (km/h) Dirección de racha Precipitación (mm) Presión (hPa) Tendencia (hPa) Humedad (%)
2020-01-23 23:00:00 5.7 3 Este 9 Sudeste 0 -- -- 95
2020-01-23 22:00:00 6 0 Calma 12 Este 0 -- -- 95
2020-01-23 21:00:00 6.4 4 Sudeste 12 Sudeste 0 -- -- 94
2020-01-23 20:00:00 6.7 4 Este 14 Sudeste 0 -- -- 93
2020-01-23 19:00:00 7.2 4 Este 11 Sudeste 0 -- -- 90
2020-01-23 18:00:00 8.4 2 Sudeste 17 Sudeste 0 -- -- 82
2020-01-23 17:00:00 9.4 3 Sudeste 18 Sudeste 0 -- -- 77
2020-01-23 16:00:00 10.9 7 Sudeste 22 Sur 0 -- -- 71
2020-01-23 15:00:00 10.5 8 Sur 18 Sur 0 -- -- 73
2020-01-23 14:00:00 10 8 Sur 19 Sur 0 -- -- 78
2020-01-23 13:00:00 8.9 9 Sur 19 Sur 0 -- -- 80
2020-01-23 12:00:00 6.5 3 Este 6 Nordeste 0 -- -- 98
2020-01-23 11:00:00 4.2 0 Calma 5 Este 0 -- -- 98
2020-01-23 10:00:00 1.6 0 Calma 3 Oeste 0 -- -- 99
2020-01-23 09:00:00 -0.4 2 Sudoeste 4 Sur 0 -- -- 98
2020-01-23 08:00:00 -0.9 0 Calma 4 Sudoeste 0 -- -- 97
2020-01-23 07:00:00 -0.5 0 Calma 5 Sudoeste 0 -- -- 97
2020-01-23 06:00:00 0.2 0 Calma 9 Sudoeste 0 -- -- 97
2020-01-23 05:00:00 -0.4 2 Sudoeste 5 Sudoeste 0 -- -- 97
2020-01-23 04:00:00 -1.3 0 Calma 5 Sur 0 -- -- 96
2020-01-23 03:00:00 -1.2 0 Calma 3 Sudoeste 0 -- -- 96
2020-01-23 02:00:00 -0.7 0 Calma 9 Sur 0 -- -- 96
2020-01-23 01:00:00 -0.9 0 Calma 3 Sudoeste 0 -- -- 95
2020-01-23 00:00:00 -0.4 0 Calma 4 Sudoeste 0 -- -- 95
2020-01-22 23:00:00 -0.1 0 Calma 4 Sudoeste 0 -- -- 93
2020-01-22 22:00:00 1 0 Calma 4 Sudoeste 0 -- -- 92
2020-01-22 21:00:00 2.3 0 Calma 5 Sur 0 -- -- 92
2020-01-22 20:00:00 3.3 0 Calma 5 Sur 0 -- -- 93
2020-01-22 19:00:00 4.1 0 Calma 5 Sudeste 0 -- -- 90
2020-01-22 18:00:00 6.3 0 Calma 8 Este 0 -- -- 87
2020-01-22 17:00:00 8.2 7 Este 18 Nordeste 0 -- -- 83
2020-01-22 16:00:00 9.6 5 Este 18 Este 0 -- -- 76
2020-01-22 15:00:00 8.8 7 Nordeste 16 Nordeste 0 -- -- 80
2020-01-22 14:00:00 8.2 5 Este 20 Este 0 -- -- 85
2020-01-22 13:00:00 8 7 Este 18 Nordeste 0 -- -- 89
2020-01-22 12:00:00 7.2 9 Este 19 Nordeste 0 -- -- 98
2020-01-22 11:00:00 6.5 5 Este 13 Este 0 -- -- 99
2020-01-22 10:00:00 5.2 3 Este 6 Este 0 -- -- 99
2020-01-22 09:00:00 3.2 0 Calma 3 Este 0 -- -- 99
2020-01-22 08:00:00 3.1 0 Calma 4 Sudeste 0 -- -- 98
2020-01-22 07:00:00 3.8 0 Calma 5 Sudeste 0 -- -- 98
2020-01-22 06:00:00 3.8 0 Calma 5 Este 0 -- -- 98
2020-01-22 05:00:00 4 2 Este 7 Sudeste 0 -- -- 98
2020-01-22 04:00:00 4.2 0 Calma 10 Este 0 -- -- 98
2020-01-22 03:00:00 2.6 0 Calma 4 Este 0 -- -- 98
2020-01-22 02:00:00 2.4 0 Calma 2 Sur 0.4 -- -- 98
2020-01-22 01:00:00 2.4 0 Calma 4 Sur 2.4 -- -- 98
2020-01-22 00:00:00 2.2 0 Calma 4 Sur 0.6 -- -- 98
2020-01-21 23:00:00 2.2 0 Calma 4 Sudoeste 1.4 -- -- 98
2020-01-21 22:00:00 2.5 0 Calma 5 Oeste 0 -- -- 98
2020-01-21 21:00:00 2.6 3 Oeste 8 Oeste 0 -- -- 98
2020-01-21 20:00:00 2.7 3 Noroeste 6 Noroeste 0 -- -- 98
2020-01-21 19:00:00 3 0 Calma 5 Sudoeste 0 -- -- 98
2020-01-21 18:00:00 3.3 3 Oeste 14 Oeste 0 -- -- 97
2020-01-21 17:00:00 4.7 3 Norte 12 Norte 0 -- -- 97
2020-01-21 16:00:00 5.4 2 Noroeste 8 Noroeste 0 -- -- 98
2020-01-21 15:00:00 6 0 Calma 12 Nordeste 1.6 -- -- 98
2020-01-21 14:00:00 5.1 2 Sur 9 Este 0.8 -- -- 98
2020-01-21 13:00:00 4.9 3 Este 10 Sudeste 0.8 -- -- 98
2020-01-21 12:00:00 3.8 2 Norte 9 Nordeste 2.6 -- -- 98
2020-01-21 11:00:00 3.1 0 Calma 8 Noroeste 4 -- -- 98
2020-01-21 10:00:00 2.9 2 Nordeste 11 Nordeste 4.8 -- -- 97
2020-01-21 09:00:00 2.7 3 Norte 14 Noroeste 2 -- -- 97
2020-01-21 08:00:00 2.8 5 Norte 20 Nordeste 1.4 -- -- 97
2020-01-21 07:00:00 2.5 11 Nordeste 35 Nordeste 1.4 -- -- 98
2020-01-21 06:00:00 2.2 2 Norte 17 Nordeste 1.2 -- -- 98
2020-01-21 05:00:00 2.1 3 Norte 10 Norte 6.2 -- -- 98
2020-01-21 04:00:00 2.3 3 Nordeste 12 Norte 3 -- -- 97
2020-01-21 03:00:00 1.9 4 Norte 21 Norte 1.6 -- -- 97
2020-01-21 02:00:00 1.7 5 Norte 18 Norte 1 -- -- 97
2020-01-21 01:00:00 1.7 2 Norte 15 Este 1 -- -- 96
2020-01-21 00:00:00 2 5 Este 16 Nordeste 2.2 -- -- 96
2020-01-20 23:00:00 2.4 6 Este 18 Nordeste 1.6 -- -- 96
2020-01-20 22:00:00 2.4 6 Este 16 Este 4 -- -- 97
2020-01-20 21:00:00 2.4 5 Este 17 Este 3.2 -- -- 96
2020-01-20 20:00:00 2.6 2 Este 25 Nordeste 2.6 -- -- 96
2020-01-20 19:00:00 2.7 12 Este 35 Nordeste 2.2 -- -- 96
2020-01-20 18:00:00 2.2 7 Este 24 Nordeste 2.2 -- -- 95
2020-01-20 17:00:00 2.1 6 Nordeste 27 Nordeste 2.8 -- -- 95
2020-01-20 16:00:00 2.4 11 Nordeste 33 Este 4 -- -- 94
2020-01-20 15:00:00 2.4 8 Nordeste 20 Este 3.8 -- -- 94
2020-01-20 14:00:00 2.1 9 Nordeste 25 Nordeste 2.4 -- -- 94
2020-01-20 13:00:00 1.8 7 Nordeste 31 Nordeste 1.2 -- -- 95
2020-01-20 12:00:00 1 0 Calma 0 Calma 0.6 -- -- 97
2020-01-20 11:00:00 0.3 0 Calma -- -- 0.4 -- -- 97
2020-01-20 10:00:00 0.2 0 Calma -- -- 0.2 -- -- 97
2020-01-20 09:00:00 -0.1 0 Calma -- -- 0 -- -- 97
2020-01-20 08:00:00 -0.1 0 Calma -- -- 0 -- -- 97
2020-01-20 07:00:00 -0.1 0 Calma -- -- 0 -- -- 97
2020-01-20 06:00:00 -0.1 0 Calma -- -- 0.2 -- -- 97
2020-01-20 05:00:00 -0.1 0 Calma -- -- 0 -- -- 97
2020-01-20 04:00:00 -0.1 0 Calma -- -- 0.2 -- -- 97
2020-01-20 03:00:00 0 0 Calma -- -- 0.2 -- -- 97
2020-01-20 02:00:00 0.1 0 Calma 23 Norte 0.2 -- -- 96
2020-01-20 01:00:00 0.3 12 Nordeste 33 Nordeste 1 -- -- 96
2020-01-20 00:00:00 0.9 11 Nordeste 28 Nordeste 2.2 -- -- 96
2020-01-19 23:00:00 0.7 10 Nordeste 22 Nordeste 1.6 -- -- 97
2020-01-19 22:00:00 0.4 8 Nordeste 23 Norte 1.6 -- -- 97
2020-01-19 21:00:00 0.4 7 Nordeste 25 Nordeste 0.6 -- -- 96
2020-01-19 20:00:00 0.2 6 Norte 19 Nordeste 0.2 -- -- 96
2020-01-19 19:00:00 0.4 8 Nordeste 16 Nordeste 0.2 -- -- 97
2020-01-19 18:00:00 0.1 6 Norte 14 Nordeste 0.4 -- -- 96
2020-01-19 17:00:00 0.2 4 Norte 13 Norte 0 -- -- 96
2020-01-19 16:00:00 0.2 4 Norte 18 Norte 0 -- -- 96
2020-01-19 15:00:00 0.7 5 Norte 20 Nordeste 1.4 -- -- 94
2020-01-19 14:00:00 2.9 6 Nordeste 22 Norte 1.6 -- -- 93
2020-01-19 13:00:00 3.8 5 Norte 19 Norte 2.4 -- -- 94
2020-01-19 12:00:00 4 4 Norte 17 Norte 1.2 -- -- 94
2020-01-19 11:00:00 4.4 9 Nordeste 19 Nordeste 1.2 -- -- 89
2020-01-19 10:00:00 5.2 3 Norte 16 Noroeste 0 -- -- 89
2020-01-19 09:00:00 4.6 0 Calma 5 Noroeste 0 -- -- 91
2020-01-19 08:00:00 4.8 3 Noroeste 13 Norte 0.2 -- -- 90
2020-01-19 07:00:00 5.1 5 Noroeste 16 Noroeste 0 -- -- 86
2020-01-19 06:00:00 5 3 Noroeste 16 Oeste 0 -- -- 90
2020-01-19 05:00:00 5.4 4 Noroeste 25 Oeste 0.2 -- -- 91
2020-01-19 04:00:00 6.1 8 Oeste 16 Sudoeste 0 -- -- 92
2020-01-19 03:00:00 6.5 2 Oeste 57 Oeste 0.4 -- -- 88
2020-01-19 02:00:00 8.9 13 Oeste 26 Oeste 0 -- -- 84
2020-01-19 01:00:00 9.4 10 Oeste 24 Oeste 0 -- -- 84
2020-01-19 00:00:00 9.9 12 Oeste 32 Oeste 0 -- -- 82
2020-01-18 23:00:00 8.2 3 Oeste 9 Oeste 0 -- -- 84
2020-01-18 22:00:00 8.4 0 Calma 3 Este 0 -- -- 81
2020-01-18 21:00:00 8.7 0 Calma 8 Sudoeste 0 -- -- 79
2020-01-18 20:00:00 7.9 0 Calma 9 Oeste 0 -- -- 80
2020-01-18 19:00:00 8.2 4 Oeste 13 Oeste 0 -- -- 77
2020-01-18 18:00:00 9.9 6 Oeste 25 Oeste 0 -- -- 72
2020-01-18 17:00:00 11.7 11 Oeste 26 Sudoeste 0 -- -- 64
2020-01-18 16:00:00 12.8 10 Oeste 26 Oeste 0 -- -- 58
2020-01-18 15:00:00 12.6 11 Oeste 28 Oeste 0 -- -- 57
2020-01-18 14:00:00 11 8 Oeste 26 Oeste 0 -- -- 64
2020-01-18 13:00:00 10 9 Oeste 21 Oeste 0 -- -- 69
2020-01-18 12:00:00 9.6 8 Oeste 18 Oeste 0 -- -- 75
2020-01-18 11:00:00 8.7 10 Oeste 22 Oeste 0 -- -- 77
2020-01-18 10:00:00 5.9 4 Oeste 10 Oeste 0 -- -- 89
2020-01-18 09:00:00 4.5 0 Calma 5 Sudoeste 0 -- -- 89
2020-01-18 08:00:00 4.8 0 Calma 6 Sur 0 -- -- 88
2020-01-18 07:00:00 4.2 0 Calma 5 Sudoeste 0 -- -- 88
2020-01-18 06:00:00 4.4 2 Oeste 10 Sudoeste 0 -- -- 87
2020-01-18 05:00:00 4.5 0 Calma 6 Oeste 0 -- -- 85
2020-01-18 04:00:00 5.9 0 Calma 13 Oeste 0 -- -- 81
2020-01-18 03:00:00 6.2 4 Oeste 12 Oeste 0 -- -- 80
2020-01-18 02:00:00 5.7 3 Sudoeste 7 Sudoeste 0 -- -- 81
2020-01-18 01:00:00 5.7 3 Sudoeste 9 Sur 0 -- -- 80
2020-01-18 00:00:00 6.4 3 Sudoeste 9 Sudeste 0 -- -- 76
2020-01-17 23:00:00 7.2 3 Oeste 17 Oeste 0 -- -- 74
2020-01-17 22:00:00 6.9 5 Oeste 15 Oeste 0 -- -- 76
2020-01-17 21:00:00 6 3 Sudoeste 10 Oeste 0 -- -- 76
2020-01-17 20:00:00 7.3 0 Calma 12 Noroeste 0 -- -- 70
2020-01-17 19:00:00 9.5 3 Oeste 35 Oeste 0 -- -- 63
2020-01-17 18:00:00 10.7 14 Noroeste 35 Oeste 0 -- -- 60
2020-01-17 17:00:00 12 13 Oeste 38 Oeste 0 -- -- 56
2020-01-17 16:00:00 12.8 15 Oeste 38 Oeste 0 -- -- 53
2020-01-17 15:00:00 13.3 12 Noroeste 36 Oeste 0 -- -- 56
2020-01-17 14:00:00 13.1 15 Noroeste 42 Oeste 0 -- -- 55
2020-01-17 13:00:00 12.4 20 Oeste 40 Noroeste 0 -- -- 61
2020-01-17 12:00:00 11 17 Oeste 39 Noroeste 0 -- -- 63
2020-01-17 11:00:00 9.8 19 Noroeste 39 Noroeste 0 -- -- 64
2020-01-17 10:00:00 8.5 15 Oeste 28 Oeste 0 -- -- 65
2020-01-17 09:00:00 6.7 9 Oeste 19 Oeste 0 -- -- 60
2020-01-17 08:00:00 5.8 7 Oeste 19 Oeste 0 -- -- 59
2020-01-17 07:00:00 5.1 3 Oeste 13 Sudoeste 0 -- -- 62
2020-01-17 06:00:00 6.8 7 Oeste 28 Oeste 0 -- -- 60
2020-01-17 05:00:00 6.5 15 Oeste 28 Sudoeste 0 -- -- 58
2020-01-17 04:00:00 7 10 Oeste 23 Oeste 0 -- -- 54
2020-01-17 03:00:00 4.9 5 Oeste 17 Oeste 0 -- -- 66
2020-01-17 02:00:00 3.6 3 Oeste 11 Oeste 0 -- -- 77
2020-01-17 01:00:00 2 4 Oeste 12 Oeste 0 -- -- 87
2020-01-17 00:00:00 2.6 3 Sur 5 Sur 0 -- -- 86
2020-01-16 23:00:00 2.8 2 Sudoeste 5 Sur 0 -- -- 85
2020-01-16 22:00:00 3.3 0 Calma 5 Sur 0 -- -- 82
2020-01-16 21:00:00 4.6 0 Calma 10 Sudoeste 0 -- -- 74
2020-01-16 20:00:00 6.9 5 Sudoeste 11 Sudoeste 0 -- -- 68
2020-01-16 19:00:00 8.4 5 Sudoeste 12 Sur 0 -- -- 64
2020-01-16 18:00:00 11 3 Sudoeste 9 Sudoeste 0 -- -- 58
2020-01-16 17:00:00 14.5 4 Sudoeste 16 Oeste 0 -- -- 44
2020-01-16 16:00:00 15.2 4 Oeste 18 Oeste 0 -- -- 50
2020-01-16 15:00:00 16 6 Oeste 20 Oeste 0 -- -- 49
2020-01-16 14:00:00 15.7 5 Sudoeste 12 Sudoeste 0 -- -- 50
2020-01-16 13:00:00 13.4 4 Nordeste 11 Este 0 -- -- 64
2020-01-16 12:00:00 11.5 3 Norte 6 Nordeste 0 -- -- 72
2020-01-16 11:00:00 7.8 2 Noroeste 4 Noroeste 0 -- -- 89
2020-01-16 10:00:00 2.8 0 Calma 8 Sur 0 -- -- 97
2020-01-16 09:00:00 -0.3 0 Calma 4 Sudoeste 0 -- -- 94
2020-01-16 08:00:00 0.2 2 Sudoeste 5 Sudoeste 0 -- -- 91
2020-01-16 07:00:00 1.9 2 Sudoeste 5 Sudoeste 0 -- -- 90
2020-01-16 06:00:00 2.7 2 Sudoeste 9 Sudoeste 0 -- -- 91
2020-01-16 05:00:00 2.9 0 Calma 4 Sudoeste 0 -- -- 90
2020-01-16 04:00:00 3.2 0 Calma 6 Sudoeste 0 -- -- 89
2020-01-16 03:00:00 3.6 2 Sudoeste 9 Oeste 0 -- -- 89
2020-01-16 02:00:00 2.8 3 Sudoeste 8 Sudoeste 0 -- -- 91
2020-01-16 01:00:00 2.5 3 Sudoeste 9 Sudoeste 0 -- -- 90
2020-01-16 00:00:00 3.6 3 Sudoeste 9 Sudoeste 0 -- -- 85
2020-01-15 23:00:00 3.3 0 Calma 7 Sudoeste 0 -- -- 84
2020-01-15 22:00:00 4.4 2 Sudoeste 8 Oeste 0 -- -- 81
2020-01-15 21:00:00 4.6 4 Sudoeste 9 Sudoeste 0 -- -- 78
2020-01-15 20:00:00 6.7 3 Oeste 9 Noroeste 0 -- -- 70
2020-01-15 19:00:00 8 5 Oeste 12 Noroeste 0 -- -- 65
2020-01-15 18:00:00 10.5 6 Noroeste 26 Oeste 0 -- -- 57
2020-01-15 17:00:00 12.9 10 Noroeste 24 Oeste 0 -- -- 51
2020-01-15 16:00:00 14.3 8 Noroeste 32 Oeste 0 -- -- 46
2020-01-15 15:00:00 14.5 14 Noroeste 33 Oeste 0 -- -- 40
2020-01-15 14:00:00 13.2 8 Oeste 23 Oeste 0 -- -- 51
2020-01-15 13:00:00 11.6 8 Oeste 20 Noroeste 0 -- -- 57
2020-01-15 12:00:00 8.9 6 Oeste 18 Oeste 0 -- -- 68
2020-01-15 11:00:00 6.4 9 Oeste 22 Oeste 0 -- -- 74
2020-01-15 10:00:00 5 8 Oeste 22 Oeste 0 -- -- 79
2020-01-15 09:00:00 3.2 6 Oeste 18 Oeste 0 -- -- 84
2020-01-15 08:00:00 2.3 6 Oeste 16 Noroeste 0 -- -- 84
2020-01-15 07:00:00 2.3 5 Oeste 14 Sudoeste 0 -- -- 84
2020-01-15 06:00:00 2.4 6 Oeste 15 Oeste 0 -- -- 83
2020-01-15 05:00:00 2.6 7 Oeste 18 Sudoeste 0 -- -- 83
2020-01-15 04:00:00 2.6 6 Oeste 21 Oeste 0 -- -- 81
2020-01-15 03:00:00 3.2 7 Oeste 18 Oeste 0 -- -- 79
2020-01-15 02:00:00 3.6 8 Oeste 26 Oeste 0 -- -- 78
2020-01-15 01:00:00 3.3 10 Oeste 19 Oeste 0 -- -- 79
2020-01-15 00:00:00 2.8 6 Oeste 14 Oeste 0 -- -- 79
2020-01-14 23:00:00 3.4 6 Oeste 18 Oeste 0 -- -- 75
2020-01-14 22:00:00 4.3 8 Oeste 17 Oeste 0 -- -- 71
2020-01-14 21:00:00 3.6 7 Oeste 14 Noroeste 0 -- -- 75
2020-01-14 20:00:00 2.5 4 Sudoeste 9 Sudoeste 0 -- -- 77
2020-01-14 19:00:00 4.5 0 Calma 8 Oeste 0 -- -- 67
2020-01-14 18:00:00 8.2 4 Oeste 22 Oeste 0 -- -- 56
2020-01-14 17:00:00 10.6 9 Oeste 27 Oeste 0 -- -- 49
2020-01-14 16:00:00 12.4 12 Oeste 24 Oeste 0 -- -- 38
2020-01-14 15:00:00 12.9 10 Oeste 23 Noroeste 0 -- -- 37
2020-01-14 14:00:00 12.2 6 Oeste 15 Oeste 0 -- -- 44
2020-01-14 13:00:00 10.6 5 Oeste 16 Oeste 0 -- -- 50
2020-01-14 12:00:00 8.4 9 Oeste 18 Oeste 0 -- -- 59
2020-01-14 11:00:00 5.7 4 Oeste 13 Oeste 0 -- -- 68
2020-01-14 10:00:00 2.3 2 Noroeste 12 Oeste 0 -- -- 81
2020-01-14 09:00:00 0.3 2 Oeste 16 Oeste 0 -- -- 82
2020-01-14 08:00:00 1.1 5 Oeste 14 Oeste 0 -- -- 81
2020-01-14 07:00:00 1.1 3 Sudoeste 15 Oeste 0 -- -- 83
2020-01-14 06:00:00 2.6 7 Oeste 19 Oeste 0 -- -- 79
2020-01-14 05:00:00 1.4 4 Oeste 15 Oeste 0 -- -- 83
2020-01-14 04:00:00 1.2 2 Oeste 10 Oeste 0 -- -- 81
2020-01-14 03:00:00 2.2 4 Oeste 14 Oeste 0 -- -- 78
2020-01-14 02:00:00 2.7 6 Oeste 17 Oeste 0 -- -- 76
2020-01-14 01:00:00 2 3 Sudoeste 9 Sudoeste 0 -- -- 77
2020-01-14 00:00:00 3 4 Sudoeste 14 Oeste 0 -- -- 73
2020-01-13 23:00:00 4 4 Sudoeste 15 Oeste 0 -- -- 65
2020-01-13 22:00:00 5.3 4 Noroeste 24 Oeste 0 -- -- 59
2020-01-13 21:00:00 6.1 10 Oeste 21 Oeste 0 -- -- 54
2020-01-13 20:00:00 6.5 10 Oeste 19 Oeste 0 -- -- 54
2020-01-13 19:00:00 7 5 Noroeste 18 Noroeste 0 -- -- 55
2020-01-13 18:00:00 9.1 5 Oeste 25 Oeste 0 -- -- 52
2020-01-13 17:00:00 11.1 7 Noroeste 21 Oeste 0 -- -- 47
2020-01-13 16:00:00 12.5 12 Oeste 26 Oeste 0 -- -- 39
2020-01-13 15:00:00 13.1 9 Noroeste 26 Oeste 0 -- -- 37
2020-01-13 14:00:00 12.6 9 Noroeste 26 Oeste 0 -- -- 37
2020-01-13 13:00:00 11.7 6 Oeste 17 Oeste 0 -- -- 44
2020-01-13 12:00:00 8.5 5 Noroeste 12 Noroeste 0 -- -- 57
2020-01-13 11:00:00 2.1 2 Norte 5 Norte 0 -- -- 82
2020-01-13 10:00:00 -3.2 0 Calma 2 Este 0 -- -- 95
2020-01-13 09:00:00 -5 0 Calma 4 Oeste 0 -- -- 93
2020-01-13 08:00:00 -5.4 0 Calma 2 Sudoeste 0 -- -- 92
2020-01-13 07:00:00 -4.9 0 Calma 2 Sudoeste 0 -- -- 92
2020-01-13 06:00:00 -4.4 0 Calma 5 Oeste 0 -- -- 91
2020-01-13 05:00:00 -4.1 0 Calma 2 Sudoeste 0 -- -- 89
2020-01-13 04:00:00 -3.1 0 Calma 4 Sudoeste 0 -- -- 90
2020-01-13 03:00:00 -3.2 0 Calma 4 Sur 0 -- -- 90
2020-01-13 02:00:00 -3.6 0 Calma 4 Oeste 0 -- -- 87
2020-01-13 01:00:00 -3.4 0 Calma 7 Sudoeste 0 -- -- 84
2020-01-13 00:00:00 -2.3 0 Calma 8 Sur 0 -- -- 79
2020-01-12 23:00:00 -2.4 2 Sudoeste 6 Sur 0 -- -- 80
2020-01-12 22:00:00 -1.3 3 Sudoeste 8 Sudoeste 0 -- -- 79
2020-01-12 21:00:00 -1.1 0 Calma 6 Sudoeste 0 -- -- 77
2020-01-12 20:00:00 0.5 0 Calma 5 Sudoeste 0 -- -- 71
2020-01-12 19:00:00 2.9 0 Calma 6 Sudoeste 0 -- -- 65
2020-01-12 18:00:00 6.9 0 Calma 6 Sudeste 0 -- -- 57
2020-01-12 17:00:00 11.3 2 Sur 11 Oeste 0 -- -- 41
2020-01-12 16:00:00 12.3 5 Norte 16 Nordeste 0 -- -- 35
2020-01-12 15:00:00 12.7 6 Norte 13 Norte 0 -- -- 34
2020-01-12 14:00:00 12.1 4 Norte 12 Nordeste 0 -- -- 36
2020-01-12 13:00:00 11 4 Norte 15 Nordeste 0 -- -- 43
2020-01-12 12:00:00 9.5 5 Noroeste 17 Oeste 0 -- -- 45
2020-01-12 11:00:00 6.4 9 Oeste 18 Noroeste 0 -- -- 56
2020-01-12 10:00:00 2 0 Calma 9 Oeste 0 -- -- 76
2020-01-12 09:00:00 -0.9 2 Sudoeste 6 Sudoeste 0 -- -- 81
2020-01-12 08:00:00 -0.3 2 Oeste 13 Oeste 0 -- -- 79
2020-01-12 07:00:00 -0.8 3 Oeste 10 Sudoeste 0 -- -- 81
2020-01-12 06:00:00 -0.7 2 Sudoeste 6 Sudoeste 0 -- -- 80
2020-01-12 05:00:00 -0.3 0 Calma 7 Sudoeste 0 -- -- 76
2020-01-12 04:00:00 0.5 3 Sudoeste 6 Sudoeste 0 -- -- 79
2020-01-12 03:00:00 0.9 2 Oeste 6 Sudoeste 0 -- -- 80
2020-01-12 02:00:00 1.2 0 Calma 8 Oeste 0 -- -- 79
2020-01-12 01:00:00 1.5 0 Calma 6 Oeste 0 -- -- 79
2020-01-12 00:00:00 1.7 0 Calma 13 Sudoeste 0 -- -- 77
2020-01-11 23:00:00 1 0 Calma 10 Sudoeste 0 -- -- 76
2020-01-11 22:00:00 1.6 3 Sudoeste 9 Sudoeste 0 -- -- 78
2020-01-11 21:00:00 2.1 4 Sudoeste 8 Sudoeste 0 -- -- 77
2020-01-11 20:00:00 2 3 Sudoeste 9 Sudoeste 0 -- -- 77
2020-01-11 19:00:00 3.5 0 Calma 4 Sudoeste 0 -- -- 70
2020-01-11 18:00:00 7 0 Calma 5 Norte 0 -- -- 61
2020-01-11 17:00:00 11.1 3 Norte 10 Noroeste 0 -- -- 44
2020-01-11 16:00:00 12.2 4 Norte 13 Noroeste 0 -- -- 41
2020-01-11 15:00:00 12.1 5 Norte 13 Norte 0 -- -- 43
2020-01-11 14:00:00 11.2 4 Norte 13 Noroeste 0 -- -- 50
2020-01-11 13:00:00 9.7 6 Norte 11 Noroeste 0 -- -- 56
2020-01-11 12:00:00 7.5 3 Norte 10 Noroeste 0 -- -- 65
2020-01-11 11:00:00 4.5 3 Norte 8 Noroeste 0 -- -- 76
2020-01-11 10:00:00 0.9 2 Noroeste 5 Noroeste 0 -- -- 97
2020-01-11 09:00:00 -1.9 0 Calma 4 Sudoeste 0 -- -- 94
2020-01-11 08:00:00 -1.7 2 Sudoeste 4 Sudoeste 0 -- -- 93
2020-01-11 07:00:00 -1 0 Calma 6 Sudoeste 0 -- -- 92
2020-01-11 06:00:00 0 2 Sudoeste 5 Sudoeste 0 -- -- 91
2020-01-11 05:00:00 1.1 0 Calma 6 Noroeste 0 -- -- 88
2020-01-11 04:00:00 2.7 0 Calma 5 Noroeste 0 -- -- 86
2020-01-11 03:00:00 3.5 0 Calma 4 Oeste 0 -- -- 89
2020-01-11 02:00:00 3 0 Calma 5 Nordeste 0 -- -- 87
2020-01-11 01:00:00 4.7 0 Calma 5 Noroeste 0 -- -- 83
2020-01-11 00:00:00 5.2 0 Calma 5 Norte 0 -- -- 83
2020-01-10 23:00:00 5.7 3 Nordeste 19 Este 0 -- -- 81
2020-01-10 22:00:00 5.8 8 Este 20 Este 0 -- -- 81
2020-01-10 21:00:00 5.1 4 Nordeste 25 Nordeste 0 -- -- 81
2020-01-10 20:00:00 5.4 12 Nordeste 24 Nordeste 0 -- -- 80
2020-01-10 19:00:00 5.5 3 Nordeste 17 Este 0 -- -- 79
2020-01-10 18:00:00 6.9 6 Este 25 Este 0 -- -- 75
2020-01-10 17:00:00 9 7 Este 23 Nordeste 0 -- -- 61
2020-01-10 16:00:00 11.3 6 Nordeste 22 Norte 0 -- -- 46
2020-01-10 15:00:00 11.2 8 Nordeste 28 Nordeste 0 -- -- 48
2020-01-10 14:00:00 10.9 9 Norte 24 Nordeste 0 -- -- 51
2020-01-10 13:00:00 9.8 8 Norte 19 Nordeste 0 -- -- 62
2020-01-10 12:00:00 8.3 5 Norte 12 Nordeste 0 -- -- 72
2020-01-10 11:00:00 6.6 3 Nordeste 9 Nordeste 0 -- -- 80
2020-01-10 10:00:00 5.4 0 Calma 6 Noroeste 0 -- -- 86
2020-01-10 09:00:00 4.9 2 Norte 12 Noroeste 0 -- -- 89
2020-01-10 08:00:00 3.9 4 Oeste 14 Noroeste 0 -- -- 89
2020-01-10 07:00:00 4.2 5 Oeste 18 Noroeste 0 -- -- 88
2020-01-10 06:00:00 5.1 6 Noroeste 27 Noroeste 0 -- -- 83
2020-01-10 05:00:00 5.3 8 Noroeste 17 Noroeste 0 -- -- 84
2020-01-10 04:00:00 6 3 Oeste 21 Norte 0 -- -- 81
2020-01-10 03:00:00 4.7 3 Oeste 10 Oeste 0 -- -- 84
2020-01-10 02:00:00 5.2 4 Oeste 13 Oeste 0 -- -- 82
2020-01-10 01:00:00 4.8 4 Oeste 12 Sudoeste 0 -- -- 86
2020-01-10 00:00:00 4.3 6 Oeste 14 Oeste 0 -- -- 93
2020-01-09 23:00:00 3.8 0 Calma 9 Sudoeste 0 -- -- 86
2020-01-09 22:00:00 6 5 Sudoeste 13 Sudoeste 0 -- -- 83
2020-01-09 21:00:00 5.5 5 Sudoeste 10 Sudoeste 0 -- -- 88
2020-01-09 20:00:00 4.4 0 Calma 10 Sudoeste 0 -- -- 84
2020-01-09 19:00:00 5.6 5 Sudoeste 10 Sudoeste 0 -- -- 81
2020-01-09 18:00:00 8.1 3 Sur 5 Sudoeste 0 -- -- 71
2020-01-09 17:00:00 12.2 0 Calma 9 Sudoeste 0 -- -- 56
2020-01-09 16:00:00 12.7 4 Oeste 13 Oeste 0 -- -- 55
2020-01-09 15:00:00 12 6 Oeste 14 Oeste 0 -- -- 63
2020-01-09 14:00:00 11.3 4 Oeste 12 Sudoeste 0 -- -- 69
2020-01-09 13:00:00 8.9 2 Sudeste 8 Sudeste 0 -- -- 81
2020-01-09 12:00:00 5.7 3 Noroeste 9 Noroeste 0 -- -- 98
2020-01-09 11:00:00 3.2 2 Nordeste 5 Norte 0 -- -- 98
2020-01-09 10:00:00 -0.8 0 Calma 4 Sur 0 -- -- 97
2020-01-09 09:00:00 -2.4 2 Sur 4 Sur 0 -- -- 96
2020-01-09 08:00:00 -2.2 0 Calma 6 Sur 0 -- -- 95
2020-01-09 07:00:00 -2.2 0 Calma 2 Sudoeste 0 -- -- 94
2020-01-09 06:00:00 -1.6 0 Calma 3 Sudoeste 0 -- -- 95
2020-01-09 05:00:00 -1.3 0 Calma 4 Sudoeste 0 -- -- 94
2020-01-09 04:00:00 -0.2 2 Sudoeste 4 Sudoeste 0 -- -- 94
2020-01-09 03:00:00 0.8 0 Calma 4 Sudoeste 0 -- -- 95
2020-01-09 02:00:00 2.6 2 Sur 7 Sudoeste 0 -- -- 95
2020-01-09 01:00:00 4 0 Calma 3 Sudeste 0 -- -- 96
2020-01-09 00:00:00 3.6 0 Calma 5 Sudeste 0 -- -- 97
2020-01-08 23:00:00 1.2 0 Calma 8 Sudoeste 0 -- -- 93
2020-01-08 22:00:00 1.2 0 Calma 4 Sudoeste 0 -- -- 91
2020-01-08 21:00:00 2.1 0 Calma 3 Sudoeste 0 -- -- 90
2020-01-08 20:00:00 3.7 0 Calma 7 Sudeste 0 -- -- 87
2020-01-08 19:00:00 5.7 0 Calma 13 Este 0 -- -- 85
2020-01-08 18:00:00 8.1 5 Este 14 Este 0 -- -- 83
2020-01-08 17:00:00 10 4 Este 14 Este 0 -- -- 73
2020-01-08 16:00:00 10.9 7 Este 18 Este 0 -- -- 69
2020-01-08 15:00:00 11.6 9 Este 20 Este 0 -- -- 65
2020-01-08 14:00:00 12.3 7 Este 21 Este 0 -- -- 53
2020-01-08 13:00:00 11.9 7 Este 15 Nordeste 0 -- -- 51
2020-01-08 12:00:00 9.7 5 Nordeste 11 Este 0 -- -- 59
2020-01-08 11:00:00 6.2 3 Norte 6 Este 0 -- -- 67
2020-01-08 10:00:00 1.9 0 Calma 5 Norte 0 -- -- 87
2020-01-08 09:00:00 -1.2 0 Calma 4 Sudoeste 0 -- -- 90
2020-01-08 08:00:00 -1 0 Calma 7 Sudoeste 0 -- -- 87
2020-01-08 07:00:00 -0.7 0 Calma 9 Sur 0 -- -- 85
2020-01-08 06:00:00 -0.6 2 Sudoeste 7 Sudoeste 0 -- -- 87
2020-01-08 05:00:00 0.4 2 Oeste 8 Sudoeste 0 -- -- 84
2020-01-08 04:00:00 1 0 Calma 5 Sudoeste 0 -- -- 83
2020-01-08 03:00:00 1.9 0 Calma 10 Noroeste 0 -- -- 82
2020-01-08 02:00:00 0.7 0 Calma 8 Sudoeste 0 -- -- 84
2020-01-08 01:00:00 0.6 2 Sudoeste 8 Oeste 0 -- -- 83
2020-01-08 00:00:00 1 3 Sudoeste 10 Sudoeste 0 -- -- 82
2020-01-07 23:00:00 1.5 3 Sudoeste 6 Sudoeste 0 -- -- 79
2020-01-07 22:00:00 3.2 2 Sudoeste 8 Sudoeste 0 -- -- 71
2020-01-07 21:00:00 4.9 2 Sudoeste 10 Sudoeste 0 -- -- 66
2020-01-07 20:00:00 5.2 3 Sudoeste 7 Sudoeste 0 -- -- 66
2020-01-07 19:00:00 5.9 0 Calma 4 Sudoeste 0 -- -- 67
2020-01-07 18:00:00 9.3 0 Calma 3 Sudoeste 0 -- -- 61
2020-01-07 17:00:00 15.1 0 Calma 6 Este 0 -- -- 45
2020-01-07 16:00:00 16.6 0 Calma 7 Este 0 -- -- 40
2020-01-07 15:00:00 15.7 2 Norte 6 Noroeste 0 -- -- 43
2020-01-07 14:00:00 13.9 3 Nordeste 9 Nordeste 0 -- -- 45
2020-01-07 13:00:00 11.4 2 Noroeste 8 Nordeste 0 -- -- 57
2020-01-07 12:00:00 8 3 Norte 8 Norte 0 -- -- 65
2020-01-07 11:00:00 4.5 0 Calma 4 Norte 0 -- -- 78
2020-01-07 10:00:00 -0.8 0 Calma 4 Oeste 0 -- -- 96
2020-01-07 09:00:00 -2.8 0 Calma 3 Oeste 0 -- -- 93
2020-01-07 08:00:00 -2.8 0 Calma 5 Sudoeste 0 -- -- 91
2020-01-07 07:00:00 -2.4 0 Calma 6 Sudoeste 0 -- -- 90
2020-01-07 06:00:00 -2.5 0 Calma 4 Oeste 0 -- -- 89
2020-01-07 05:00:00 -2 0 Calma 5 Sudoeste 0 -- -- 89
2020-01-07 04:00:00 -1.8 0 Calma 6 Sudoeste 0 -- -- 89
2020-01-07 03:00:00 -2.2 0 Calma 3 Sudoeste 0 -- -- 88
2020-01-07 02:00:00 -1.7 0 Calma 6 Sudoeste 0 -- -- 88
2020-01-07 01:00:00 -1.6 2 Sudoeste 5 Sudoeste 0 -- -- 86
2020-01-07 00:00:00 -1.2 0 Calma 3 Oeste 0 -- -- 84
2020-01-06 23:00:00 -0.5 0 Calma 3 Sudoeste 0 -- -- 83
2020-01-06 22:00:00 0.2 0 Calma 3 Sudoeste 0 -- -- 80
2020-01-06 21:00:00 1.4 2 Sudoeste 4 Sudoeste 0 -- -- 75
2020-01-06 20:00:00 2.9 0 Calma 4 Oeste 0 -- -- 69
2020-01-06 19:00:00 5.4 2 Sudoeste 8 Sur 0 -- -- 61
2020-01-06 18:00:00 8.9 0 Calma 6 Sudoeste 0 -- -- 50
2020-01-06 17:00:00 14.3 2 Sudoeste 11 Oeste 0 -- -- 34
2020-01-06 16:00:00 16.8 3 Oeste 12 Oeste 0 -- -- 29
2020-01-06 15:00:00 16 3 Oeste 10 Noroeste 0 -- -- 32
2020-01-06 14:00:00 14 3 Norte 8 Noroeste 0 -- -- 41
2020-01-06 13:00:00 11.3 3 Nordeste 6 Nordeste 0 -- -- 54
2020-01-06 12:00:00 8.1 2 Nordeste 5 Nordeste 0 -- -- 68
2020-01-06 11:00:00 3.2 0 Calma 4 Norte 0 -- -- 95
2020-01-06 10:00:00 -1.8 0 Calma 3 Oeste 0 -- -- 96